Time,TemperatureF,DewpointF,PressureIn,WindDirection,WindDirectionDegrees,WindSpeedMPH,WindSpeedGustMPH,Humidity,HourlyPrecipIn,Conditions,Clouds,dailyrainin,SoftwareType,DateUTC
2013-03-02 00:07:00,52.7,42.0,30.01,WNW,286,3.0,9.0,68,0.00,,,0.00,weatherlink.com 1.10,2013-03-02 05:07:00,
2013-03-02 00:21:00,52.7,42.0,30.02,WNW,300,4.0,8.0,68,0.00,,,0.00,weatherlink.com 1.10,2013-03-02 05:21:00,
2013-03-02 00:36:00,52.6,43.0,30.02,WNW,290,4.0,7.0,69,0.00,,,0.00,weatherlink.com 1.10,2013-03-02 05:36:00,
2013-03-02 00:51:00,52.5,42.0,30.01,WNW,290,5.0,8.0,68,0.00,,,0.00,weatherlink.com 1.10,2013-03-02 05:51:00,
2013-03-02 01:06:00,52.3,42.0,30.01,West,274,1.0,5.0,69,0.00,,,0.00,weatherlink.com 1.10,2013-03-02 06:06:00,
2013-03-02 01:21:00,52.3,42.0,30.01,WNW,290,3.0,8.0,68,0.00,,,0.00,weatherlink.com 1.10,2013-03-02 06:21:00,
2013-03-02 01:36:00,52.2,42.0,30.01,NW,311,5.0,8.0,68,0.00,,,0.00,weatherlink.com 1.10,2013-03-02 06:36:00,
2013-03-02 01:51:00,52.1,42.0,30.01,West,259,6.0,12.0,68,0.00,,,0.00,weatherlink.com 1.10,2013-03-02 06:51:00,
2013-03-02 02:06:00,51.2,40.0,30.02,NNW,328,6.0,14.0,65,0.00,,,0.00,weatherlink.com 1.10,2013-03-02 07:06:00,
2013-03-02 02:21:00,50.5,37.0,30.02,WNW,296,6.0,15.0,60,0.00,,,0.00,weatherlink.com 1.10,2013-03-02 07:21:00,
2013-03-02 02:36:00,50.1,36.0,30.02,NW,325,8.0,14.0,59,0.00,,,0.00,weatherlink.com 1.10,2013-03-02 07:36:00,
2013-03-02 02:51:00,49.8,36.0,30.02,NW,305,3.0,8.0,60,0.00,,,0.00,weatherlink.com 1.10,2013-03-02 07:51:00,
2013-03-02 03:06:00,49.5,36.0,30.03,NW,321,2.0,12.0,60,0.00,,,0.00,weatherlink.com 1.10,2013-03-02 08:06:00,
2013-03-02 03:21:00,49.1,36.0,30.02,NNW,337,4.0,8.0,61,0.00,,,0.00,weatherlink.com 1.10,2013-03-02 08:21:00,
2013-03-02 03:36:00,48.9,36.0,30.02,North,349,5.0,9.0,61,0.00,,,0.00,weatherlink.com 1.10,2013-03-02 08:36:00,
2013-03-02 03:51:00,48.6,36.0,30.02,NNW,330,3.0,8.0,62,0.00,,,0.00,weatherlink.com 1.10,2013-03-02 08:51:00,
2013-03-02 04:06:00,48.5,35.0,30.02,WNW,300,10.0,10.0,61,0.00,,,0.00,weatherlink.com 1.10,2013-03-02 09:06:00,
2013-03-02 04:22:00,48.4,36.0,30.02,North,356,5.0,8.0,62,0.00,,,0.00,weatherlink.com 1.10,2013-03-02 09:22:00,
2013-03-02 04:36:00,48.3,36.0,30.02,West,281,4.0,7.0,62,0.00,,,0.00,weatherlink.com 1.10,2013-03-02 09:36:00,
2013-03-02 04:51:00,48.3,36.0,30.02,NNW,345,3.0,4.0,63,0.00,,,0.00,weatherlink.com 1.10,2013-03-02 09:51:00,
2013-03-02 05:06:00,48.5,35.0,30.02,NNW,333,3.0,8.0,61,0.00,,,0.00,weatherlink.com 1.10,2013-03-02 10:06:00,
2013-03-02 05:21:00,48.3,35.0,30.01,North,349,2.0,6.0,60,0.00,,,0.00,weatherlink.com 1.10,2013-03-02 10:21:00,
2013-03-02 05:36:00,48.0,35.0,30.00,NNE,22,1.0,5.0,61,0.00,,,0.00,weatherlink.com 1.10,2013-03-02 10:36:00,
2013-03-02 05:51:00,47.4,34.0,30.00,NE,49,1.0,4.0,61,0.00,,,0.00,weatherlink.com 1.10,2013-03-02 10:51:00,
2013-03-02 06:06:00,45.9,37.0,30.00,NNE,13,2.0,3.0,72,0.00,,,0.00,weatherlink.com 1.10,2013-03-02 11:06:00,
2013-03-02 06:21:00,43.2,38.0,30.01,NNE,18,1.0,3.0,81,0.00,,,0.00,weatherlink.com 1.10,2013-03-02 11:21:00,
2013-03-02 06:36:00,41.9,38.0,30.01,NNE,26,0.0,1.0,87,0.00,,,0.00,weatherlink.com 1.10,2013-03-02 11:36:00,
2013-03-02 06:51:00,41.5,39.0,30.01,NNE,16,0.0,3.0,90,0.00,,,0.00,weatherlink.com 1.10,2013-03-02 11:51:00,
2013-03-02 07:07:00,40.4,38.0,30.01,North,8,0.0,1.0,92,0.00,,,0.00,weatherlink.com 1.10,2013-03-02 12:07:00,
2013-03-02 07:22:00,40.2,39.0,30.01,North,8,0.0,1.0,95,0.00,,,0.00,weatherlink.com 1.10,2013-03-02 12:22:00,
2013-03-02 07:37:00,41.2,40.0,30.02,North,4,0.0,1.0,95,0.00,,,0.00,weatherlink.com 1.10,2013-03-02 12:37:00,
2013-03-02 07:52:00,42.5,41.0,30.03,NNW,337,3.0,4.0,95,0.00,,,0.00,weatherlink.com 1.10,2013-03-02 12:52:00,
2013-03-02 08:07:00,43.6,42.0,30.03,NE,39,1.0,4.0,93,0.00,,,0.00,weatherlink.com 1.10,2013-03-02 13:07:00,
2013-03-02 08:22:00,45.1,42.0,30.04,NW,325,4.0,5.0,90,0.00,,,0.00,weatherlink.com 1.10,2013-03-02 13:22:00,
2013-03-02 08:37:00,46.5,43.0,30.04,NNW,329,2.0,7.0,86,0.00,,,0.00,weatherlink.com 1.10,2013-03-02 13:37:00,
2013-03-02 08:52:00,49.7,37.0,30.05,NNW,341,4.0,9.0,63,0.00,,,0.00,weatherlink.com 1.10,2013-03-02 13:52:00,
2013-03-02 09:08:00,50.6,37.0,30.04,NW,323,2.0,5.0,60,0.00,,,0.00,weatherlink.com 1.10,2013-03-02 14:08:00,
2013-03-02 09:22:00,50.8,37.0,30.04,WNW,302,2.0,6.0,59,0.00,,,0.00,weatherlink.com 1.10,2013-03-02 14:22:00,
2013-03-02 09:37:00,51.4,38.0,30.05,NW,317,1.0,4.0,61,0.00,,,0.00,weatherlink.com 1.10,2013-03-02 14:37:00,
2013-03-02 09:53:00,51.9,38.0,30.04,West,273,1.0,5.0,60,0.00,,,0.00,weatherlink.com 1.10,2013-03-02 14:53:00,
2013-03-02 10:07:00,53.3,39.0,30.04,North,356,2.0,5.0,59,0.00,,,0.00,weatherlink.com 1.10,2013-03-02 15:07:00,
2013-03-02 10:22:00,54.5,39.0,30.04,NW,309,7.0,11.0,57,0.00,,,0.00,weatherlink.com 1.10,2013-03-02 15:22:00,
2013-03-02 10:37:00,54.3,40.0,30.05,NW,310,4.0,11.0,58,0.00,,,0.00,weatherlink.com 1.10,2013-03-02 15:37:00,
2013-03-02 10:52:00,52.9,39.0,30.05,WNW,293,7.0,13.0,59,0.00,,,0.00,weatherlink.com 1.10,2013-03-02 15:52:00,
2013-03-02 11:07:00,53.0,39.0,30.06,NW,317,8.0,11.0,59,0.00,,,0.00,weatherlink.com 1.10,2013-03-02 16:07:00,
2013-03-02 11:22:00,53.0,38.0,30.07,West,273,4.0,10.0,58,0.00,,,0.00,weatherlink.com 1.10,2013-03-02 16:22:00,
2013-03-02 11:37:00,53.6,39.0,30.07,WNW,290,7.0,14.0,58,0.00,,,0.00,weatherlink.com 1.10,2013-03-02 16:37:00,
2013-03-02 11:52:00,53.6,39.0,30.06,WNW,295,7.0,14.0,58,0.00,,,0.00,weatherlink.com 1.10,2013-03-02 16:52:00,
2013-03-02 12:07:00,52.3,40.0,30.07,WNW,287,4.0,16.0,63,0.00,,,0.00,weatherlink.com 1.10,2013-03-02 17:07:00,
2013-03-02 12:22:00,53.7,41.0,30.07,West,277,11.0,15.0,63,0.00,,,0.00,weatherlink.com 1.10,2013-03-02 17:22:00,
2013-03-02 12:37:00,56.1,41.0,30.05,NW,305,4.0,13.0,58,0.00,,,0.00,weatherlink.com 1.10,2013-03-02 17:37:00,
2013-03-02 12:52:00,55.0,40.0,30.04,NNW,330,6.0,15.0,57,0.00,,,0.00,weatherlink.com 1.10,2013-03-02 17:52:00,
2013-03-02 13:09:00,55.5,38.0,30.03,West,269,8.0,21.0,53,0.00,,,0.00,weatherlink.com 1.10,2013-03-02 18:09:00,
2013-03-02 13:22:00,57.6,38.0,30.02,NW,304,8.0,17.0,49,0.00,,,0.00,weatherlink.com 1.10,2013-03-02 18:22:00,
2013-03-02 13:37:00,57.9,39.0,30.01,WNW,297,7.0,15.0,49,0.00,,,0.00,weatherlink.com 1.10,2013-03-02 18:37:00,
2013-03-02 13:52:00,57.2,39.0,30.00,WNW,287,6.0,14.0,50,0.00,,,0.00,weatherlink.com 1.10,2013-03-02 18:52:00,
2013-03-02 14:08:00,57.0,38.0,30.00,West,275,8.0,15.0,49,0.00,,,0.00,weatherlink.com 1.10,2013-03-02 19:08:00,
2013-03-02 14:22:00,56.3,37.0,30.00,West,271,8.0,19.0,49,0.00,,,0.00,weatherlink.com 1.10,2013-03-02 19:22:00,
2013-03-02 14:37:00,56.7,36.0,29.99,WNW,284,11.0,16.0,47,0.00,,,0.00,weatherlink.com 1.10,2013-03-02 19:37:00,
2013-03-02 14:52:00,55.7,37.0,29.99,WNW,293,12.0,23.0,49,0.00,,,0.00,weatherlink.com 1.10,2013-03-02 19:52:00,
2013-03-02 15:07:00,56.7,38.0,29.98,WNW,291,6.0,21.0,50,0.00,,,0.00,weatherlink.com 1.10,2013-03-02 20:07:00,
2013-03-02 15:23:00,57.1,37.0,29.98,NW,304,9.0,17.0,47,0.00,,,0.00,weatherlink.com 1.10,2013-03-02 20:23:00,
2013-03-02 15:37:00,57.1,36.0,29.98,WNW,295,9.0,19.0,46,0.00,,,0.00,weatherlink.com 1.10,2013-03-02 20:37:00,
2013-03-02 15:53:00,57.0,37.0,29.98,WNW,290,11.0,17.0,47,0.00,,,0.00,weatherlink.com 1.10,2013-03-02 20:53:00,
2013-03-02 16:08:00,56.0,36.0,29.98,West,281,5.0,20.0,48,0.00,,,0.00,weatherlink.com 1.10,2013-03-02 21:08:00,
2013-03-02 16:23:00,55.1,37.0,29.99,West,280,12.0,18.0,50,0.00,,,0.00,weatherlink.com 1.10,2013-03-02 21:23:00,
2013-03-02 16:38:00,55.7,37.0,29.99,WNW,295,5.0,17.0,49,0.00,,,0.00,weatherlink.com 1.10,2013-03-02 21:38:00,
2013-03-02 16:53:00,54.0,37.0,30.00,WNW,284,8.0,20.0,52,0.00,,,0.00,weatherlink.com 1.10,2013-03-02 21:53:00,
2013-03-02 17:08:00,53.8,36.0,29.99,West,264,5.0,18.0,52,0.00,,,0.00,weatherlink.com 1.10,2013-03-02 22:08:00,
2013-03-02 17:23:00,53.7,37.0,29.99,NNW,335,9.0,16.0,54,0.00,,,0.00,weatherlink.com 1.10,2013-03-02 22:23:00,
2013-03-02 17:38:00,53.1,38.0,29.99,West,260,6.0,14.0,56,0.00,,,0.00,weatherlink.com 1.10,2013-03-02 22:38:00,
2013-03-02 17:54:00,52.5,37.0,30.00,WNW,295,6.0,16.0,56,0.00,,,0.00,weatherlink.com 1.10,2013-03-02 22:54:00,
2013-03-02 18:08:00,51.8,38.0,30.00,WNW,292,4.0,9.0,59,0.00,,,0.00,weatherlink.com 1.10,2013-03-02 23:08:00,
2013-03-02 18:23:00,51.4,38.0,30.01,West,280,8.0,14.0,61,0.00,,,0.00,weatherlink.com 1.10,2013-03-02 23:23:00,
2013-03-02 18:38:00,50.8,38.0,30.01,NW,304,6.0,11.0,63,0.00,,,0.00,weatherlink.com 1.10,2013-03-02 23:38:00,
2013-03-02 18:53:00,50.0,39.0,30.01,WNW,293,2.0,8.0,65,0.00,,,0.00,weatherlink.com 1.10,2013-03-02 23:53:00,
2013-03-02 19:08:00,49.5,38.0,30.01,WNW,298,2.0,4.0,66,0.00,,,0.00,weatherlink.com 1.10,2013-03-03 00:08:00,
2013-03-02 19:23:00,48.8,38.0,30.01,WNW,301,1.0,5.0,67,0.00,,,0.00,weatherlink.com 1.10,2013-03-03 00:23:00,
2013-03-02 19:38:00,48.3,38.0,30.02,WNW,286,1.0,4.0,68,0.00,,,0.00,weatherlink.com 1.10,2013-03-03 00:38:00,
2013-03-02 19:53:00,47.8,38.0,30.02,West,280,0.0,1.0,68,0.00,,,0.00,weatherlink.com 1.10,2013-03-03 00:53:00,
2013-03-02 20:08:00,47.1,38.0,30.02,West,278,0.0,1.0,70,0.00,,,0.00,weatherlink.com 1.10,2013-03-03 01:08:00,
2013-03-02 20:23:00,45.7,37.0,30.02,West,278,0.0,0.0,72,0.00,,,0.00,weatherlink.com 1.10,2013-03-03 01:23:00,
2013-03-02 20:38:00,44.4,37.0,30.02,West,278,0.0,0.0,75,0.00,,,0.00,weatherlink.com 1.10,2013-03-03 01:38:00,
2013-03-02 20:53:00,43.2,37.0,30.02,West,278,0.0,0.0,78,0.00,,,0.00,weatherlink.com 1.10,2013-03-03 01:53:00,
2013-03-02 21:08:00,42.7,37.0,30.02,West,278,0.0,0.0,80,0.00,,,0.00,weatherlink.com 1.10,2013-03-03 02:08:00,
2013-03-02 21:23:00,42.5,37.0,30.02,West,278,0.0,0.0,81,0.00,,,0.00,weatherlink.com 1.10,2013-03-03 02:23:00,
2013-03-02 21:38:00,42.2,37.0,30.02,West,278,0.0,0.0,82,0.00,,,0.00,weatherlink.com 1.10,2013-03-03 02:38:00,
2013-03-02 21:53:00,41.9,37.0,30.02,West,278,0.0,0.0,83,0.00,,,0.00,weatherlink.com 1.10,2013-03-03 02:53:00,
2013-03-02 22:08:00,41.4,37.0,30.02,West,278,0.0,1.0,85,0.00,,,0.00,weatherlink.com 1.10,2013-03-03 03:08:00,
2013-03-02 22:23:00,40.9,37.0,30.02,West,262,0.0,0.0,86,0.00,,,0.00,weatherlink.com 1.10,2013-03-03 03:23:00,
2013-03-02 22:38:00,40.5,37.0,30.02,West,262,0.0,0.0,87,0.00,,,0.00,weatherlink.com 1.10,2013-03-03 03:38:00,
2013-03-02 22:53:00,40.3,37.0,30.02,West,263,0.0,1.0,89,0.00,,,0.00,weatherlink.com 1.10,2013-03-03 03:53:00,
2013-03-02 23:08:00,43.3,39.0,30.03,West,263,0.0,1.0,84,0.00,,,0.00,weatherlink.com 1.10,2013-03-03 04:08:00,
2013-03-02 23:23:00,44.3,39.0,30.02,West,260,0.0,0.0,80,0.00,,,0.00,weatherlink.com 1.10,2013-03-03 04:23:00,
2013-03-02 23:38:00,43.5,38.0,30.02,West,262,0.0,1.0,82,0.00,,,0.00,weatherlink.com 1.10,2013-03-03 04:38:00,
2013-03-02 23:53:00,42.4,38.0,30.01,West,262,0.0,0.0,84,0.00,,,0.00,weatherlink.com 1.10,2013-03-03 04:53:00,